Time;durP1;ratioP1;P1;durP2;ratioP2;P2;SDS_P1;SDS_P2;PMS_P1;PMS_P2;Temp;Humidity;BMP_temperature;BMP_pressure;BME280_temperature;BME280_humidity;BME280_pressure;Samples;Min_cycle;Max_cycle;Signal;HPM_P1;HPM_P2
2021/05/03 00:01:23;;;;;;;;;;;512.10;1152.00;;;;;;5070596;28;19908;-72
2021/05/03 00:03:49;;;;;;;;;;;487.30;1152.00;;;;;;5072349;28;19908;-70
2021/05/03 00:06:14;;;;;;;;;;;487.30;1152.00;;;;;;5072024;28;19915;-71
2021/05/03 00:08:40;;;;;;;;;;;487.30;1177.60;;;;;;5072410;28;19908;-71
2021/05/03 00:11:05;;;;;;;;;;;487.30;1331.20;;;;;;5072130;28;20400;-67
2021/05/03 00:13:31;;;;;;;;;;;512.00;1177.60;;;;;;5072217;28;19967;-68
2021/05/03 00:15:57;;;;;;;;;;;487.30;1152.00;;;;;;5063991;28;19909;-71
2021/05/03 00:18:22;;;;;;;;;;;487.30;1177.60;;;;;;5072026;28;20369;-65
2021/05/03 00:20:48;;;;;;;;;;;487.30;1177.60;;;;;;5071855;28;19982;-71
2021/05/03 00:23:14;;;;;;;;;;;487.30;1177.60;;;;;;5072081;28;19943;-63
2021/05/03 00:25:39;;;;;;;;;;;487.20;1177.60;;;;;;5071943;28;20375;-68
2021/05/03 00:28:05;;;;;;;;;;;487.30;1177.60;;;;;;5071950;28;19924;-71
2021/05/03 00:30:31;;;;;;;;;;;487.30;1177.60;;;;;;5072433;28;19904;-70
2021/05/03 00:32:57;;;;;;;;;;;487.30;1177.60;;;;;;5072690;28;19904;-68
2021/05/03 00:35:22;;;;;;;;;;;487.30;1177.60;;;;;;5074334;28;19905;-70
2021/05/03 00:37:48;;;;;;;;;;;487.20;1203.20;;;;;;5055549;28;19920;-63
2021/05/03 00:40:14;;;;;;;;;;;487.30;1203.20;;;;;;5055765;28;19911;-66
2021/05/03 00:42:43;;;;;;;;;;;512.00;1203.20;;;;;;5055626;28;19928;-70
2021/05/03 00:45:08;;;;;;;;;;;;;;;;;;5055447;28;19911;-70
2021/05/03 00:47:34;;;;;;;;;;;;;;;;;;5055549;28;19913;-70
2021/05/03 00:50:00;;;;;;;;;;;;;;;;;;5055522;28;19908;-69
2021/05/03 00:52:26;;;;;;;;;;;;;;;;;;5055389;28;19916;-70
2021/05/03 00:54:52;;;;;;;;;;;;;;;;;;5055425;28;19905;-70
2021/05/03 00:57:18;;;;;;;;;;;;;;;;;;5055001;28;20003;-66
2021/05/03 00:59:44;;;;;;;;;;;;;;;;;;5054971;28;19926;-66
2021/05/03 01:02:10;;;;;;;;;;;;;;;;;;5054901;28;20430;-70
2021/05/03 01:04:36;;;;;;;;;;;;;;;;;;5054806;28;19995;-69
2021/05/03 01:07:02;;;;;;;;;;;;;;;;;;5054919;28;19924;-71
2021/05/03 01:09:28;;;;;;;;;;;;;;;;;;5054497;28;20354;-69
2021/05/03 01:11:54;;;;;;;;;;;;;;;;;;5054684;28;19912;-70
2021/05/03 01:14:20;;;;;;;;;;;;;;;;;;5054604;28;19992;-69
2021/05/03 01:16:46;;;;;;;;;;;;;;;;;;5054503;28;19955;-70
2021/05/03 01:19:11;;;;;;;;;;;;;;;;;;5054726;28;19912;-71
2021/05/03 01:21:37;;;;;;;;;;;;;;;;;;5054431;28;19916;-67
2021/05/03 01:24:03;;;;;;;;;;;;;;;;;;5054326;28;19998;-69
2021/05/03 01:26:29;;;;;;;;;;;;;;;;;;5054655;28;19975;-70
2021/05/03 01:28:55;;;;;;;;;;;;;;;;;;5054538;28;20400;-71
2021/05/03 01:31:21;;;;;;;;;;;;;;;;;;5054371;28;19909;-66
2021/05/03 01:33:47;;;;;;;;;;;;;;;;;;5054290;28;20271;-70
2021/05/03 01:36:13;;;;;;;;;;;;;;;;;;5054331;28;20269;-68
2021/05/03 01:38:39;;;;;;;;;;;;;;;;;;5068568;28;19904;-70
2021/05/03 01:41:05;;;;;;;;;;;;;;;;;;5074304;28;19905;-67
2021/05/03 01:43:31;;;;;;;;;;;;;;;;;;5074347;28;20582;-71
2021/05/03 01:45:57;;;;;;;;;;;;;;;;;;5070721;28;19914;-70
2021/05/03 01:48:23;;;;;;;;;;;;;;;;;;5074852;28;20289;-71
2021/05/03 01:50:49;;;;;;;;;;;;;;;;;;5074872;28;19917;-71
2021/05/03 01:53:15;;;;;;;;;;;;;;;;;;5066115;28;19916;-70
2021/05/03 01:55:41;;;;;;;;;;;;;;;;;;5068374;28;19905;-67
2021/05/03 01:58:07;;;;;;;;;;;;;;;;;;5061316;28;20381;-71
2021/05/03 02:00:34;;;;;;;;;;;;;;;;;;5074248;28;19905;-63
2021/05/03 02:03:00;;;;;;;;;;;;;;;;;;5074354;28;19911;-68
2021/05/03 02:05:26;;;;;;;;;;;;;;;;;;5074132;28;19905;-67
2021/05/03 02:07:52;;;;;;;;;;;;;;;;;;5074301;28;20309;-68
2021/05/03 02:10:18;;;;;;;;;;;;;;;;;;5074449;28;20384;-68
2021/05/03 02:12:44;;;;;;;;;;;;;;;;;;5073945;28;19940;-67
2021/05/03 02:15:09;;;;;;;;;;;;;;;;;;5073020;28;19958;-64
2021/05/03 02:17:35;;;;;;;;;;;;;;;;;;5061757;28;19909;-63
2021/05/03 02:20:01;;;;;;;;;;;;;;;;;;5053602;28;19962;-63
2021/05/03 02:22:27;;;;;;;;;;;;;;;;;;5053796;28;19920;-63
2021/05/03 02:24:53;;;;;;;;;;;;;;;;;;5070073;28;20304;-63
2021/05/03 02:27:19;;;;;;;;;;;;;;;;;;5069846;28;19935;-65
2021/05/03 02:29:45;;;;;;;;;;;;;;;;;;5073045;28;19904;-64
2021/05/03 02:32:11;;;;;;;;;;;;;;;;;;5073332;28;19999;-67
2021/05/03 02:34:37;;;;;;;;;;;;;;;;;;5073269;28;20385;-64
2021/05/03 02:37:03;;;;;;;;;;;;;;;;;;5058827;28;19987;-68
2021/05/03 02:39:29;;;;;;;;;;;;;;;;;;5073212;28;19904;-64
2021/05/03 02:41:55;;;;;;;;;;;;;;;;;;5072956;28;19966;-65
2021/05/03 02:44:21;;;;;;;;;;;;;;;;;;5072913;28;19909;-66
2021/05/03 02:46:47;;;;;;;;;;;;;;;;;;5069942;28;19913;-64
2021/05/03 02:49:13;;;;;;;;;;;;;;;;;;5072778;28;19954;-63
2021/05/03 02:51:39;;;;;;;;;;;;;;;;;;5072809;28;19944;-63
2021/05/03 02:54:04;;;;;;;;;;;;;;;;;;5072765;28;19912;-65
2021/05/03 02:56:30;;;;;;;;;;;;;;;;;;5071893;28;20247;-64
2021/05/03 02:58:56;;;;;;;;;;;;;;;;;;5072827;28;20358;-63
2021/05/03 03:01:22;;;;;;;;;;;;;;;;;;5072613;28;19955;-64
2021/05/03 03:03:48;;;;;;;;;;;;;;;;;;5068013;28;20350;-65
2021/05/03 03:06:14;;;;;;;;;;;;;;;;;;5072404;28;19947;-64
2021/05/03 03:08:40;;;;;;;;;;;;;;;;;;5072572;28;19908;-65
2021/05/03 03:11:06;;;;;;;;;;;;;;;;;;5072363;28;19904;-65
2021/05/03 03:13:32;;;;;;;;;;;;;;;;;;5073013;28;19912;-63
2021/05/03 03:15:58;;;;;;;;;;;;;;;;;;5065593;28;19916;-63
2021/05/03 03:18:24;;;;;;;;;;;;;;;;;;5072436;28;19947;-65
2021/05/03 03:20:50;;;;;;;;;;;;;;;;;;5072740;28;20025;-64
2021/05/03 03:23:16;;;;;;;;;;;;;;;;;;5072826;28;19957;-62
2021/05/03 03:25:42;;;;;;;;;;;;;;;;;;5072671;28;19904;-62
2021/05/03 03:28:08;;;;;;;;;;;;;;;;;;5072781;28;19955;-63
2021/05/03 03:30:34;;;;;;;;;;;;;;;;;;5073014;28;19905;-63
2021/05/03 03:33:00;;;;;;;;;;;;;;;;;;5072804;28;19912;-63
2021/05/03 03:35:28;;;;;;;;;;;;;;;;;;5070912;28;20270;-67
2021/05/03 03:37:54;;;;;;;;;;;;;;;;;;5060588;28;19908;-64
2021/05/03 03:40:20;;;;;;;;;;;;;;;;;;5072401;28;20007;-65
2021/05/03 03:42:45;;;;;;;;;;;;;;;;;;5072748;28;20015;-64
2021/05/03 03:45:12;;;;;;;;;;;;;;;;;;5071371;28;20359;-63
2021/05/03 03:47:37;;;;;;;;;;;;;;;;;;5070668;28;19916;-63
2021/05/03 03:50:03;;;;;;;;;;;;;;;;;;5070861;28;19908;-63
2021/05/03 03:52:29;;;;;;;;;;;;;;;;;;5069857;28;20356;-63
2021/05/03 03:54:55;;;;;;;;;;;;;;;;;;5060487;28;19912;-70
2021/05/03 03:57:21;;;;;;;;;;;;;;;;;;5071894;28;20278;-67
2021/05/03 03:59:52;;;;;;;;;;;;;;;;;;5072037;28;20002;-64
2021/05/03 04:02:18;;;;;;;;;;;;;;;;;;5071989;28;20467;-65
2021/05/03 04:05:03;;;;;;;;;;;;;;;;;;5071875;28;20015;-64
2021/05/03 04:12:58;;;;;;;;;;;;;;;;;;5076131;28;20402;-65
2021/05/03 04:21:19;;;;;;;;;;;;;;;;;;5075910;28;20019;-65
2021/05/03 04:26:17;;;;;;;;;;;;;;;;;;5075609;28;19967;-66
2021/05/03 04:28:43;;;;;;;;;;;;;;;;;;5075784;28;19959;-66
2021/05/03 04:31:09;;;;;;;;;;;;;;;;;;5075654;28;19936;-69
2021/05/03 04:33:35;;;;;;;;;;;;;;;;;;5075698;28;19911;-68
2021/05/03 04:36:00;;;;;;;;;;;;;;;;;;5069082;28;19955;-66
2021/05/03 04:38:26;;;;;;;;;;;;;;;;;;5068586;28;19927;-68
2021/05/03 04:40:52;;;;;;;;;;;;;;;;;;5075586;28;19969;-69
2021/05/03 04:43:18;;;;;;;;;;;;;;;;;;5075719;28;19930;-69
2021/05/03 04:45:44;;;;;;;;;;;;;;;;;;5072834;28;19905;-69
2021/05/03 04:48:10;;;;;;;;;;;;;;;;;;5075489;28;19916;-68
2021/05/03 04:50:36;;;;;;;;;;;;;;;;;;5075455;28;19961;-68
2021/05/03 04:53:02;;;;;;;;;;;;;;;;;;5075594;28;19912;-68
2021/05/03 04:55:28;;;;;;;;;;;;;;;;;;5075513;28;20289;-68
2021/05/03 04:57:54;;;;;;;;;;;;;;;;;;5075187;28;20030;-69
2021/05/03 05:00:20;;;;;;;;;;;;;;;;;;5075388;28;19936;-70
2021/05/03 05:02:46;;;;;;;;;;;;;;;;;;5075520;28;19912;-66
2021/05/03 05:05:12;;;;;;;;;;;461.70;1254.40;;;;;;5075473;28;19911;-66
2021/05/03 05:07:38;;;;;;;;;;;;;;;;;;5075219;28;20294;-67
2021/05/03 05:10:04;;;;;;;;;;;;;;;;;;5075241;28;19911;-67
2021/05/03 05:12:30;;;;;;;;;;;;;;;;;;5075170;28;19999;-67
2021/05/03 05:14:56;;;;;;;;;;;;;;;;;;5073373;28;20445;-70
2021/05/03 05:17:22;;;;;;;;;;;;;;;;;;5067750;28;19960;-64
2021/05/03 05:19:48;;;;;;;;;;;;;;;;;;5073914;28;19936;-65
2021/05/03 05:22:14;;;;;;;;;;;;;;;;;;5075390;28;20037;-64
2021/05/03 05:24:40;;;;;;;;;;;;;;;;;;5075122;28;20350;-68
2021/05/03 05:27:06;;;;;;;;;;;;;;;;;;5076682;28;20012;-68
2021/05/03 05:29:33;;;;;;;;;;;;;;;;;;5074740;28;19944;-68
2021/05/03 05:31:59;;;;;;;;;;;;;;;;;;5074580;28;19948;-67
2021/05/03 05:34:25;;;;;;;;;;;;;;;;;;5074982;28;19904;-67
2021/05/03 05:36:50;;;;;;;;;;;;;;;;;;5062050;28;19905;-68
2021/05/03 05:39:16;;;;;;;;;;;;;;;;;;5075428;28;19904;-67
2021/05/03 05:41:42;;;;;;;;;;;461.60;1203.20;;;;;;5074732;28;19958;-64
2021/05/03 05:44:08;;;;;;;;;;;461.60;1228.80;;;;;;5074933;28;19904;-67
2021/05/03 05:46:34;;;;;;;;;;;461.70;1203.20;;;;;;5070531;28;20098;-66
2021/05/03 05:48:59;;;;;;;;;;;461.50;1228.80;;;;;;5074524;28;20362;-68
2021/05/03 05:51:25;;;;;;;;;;;461.70;1228.80;;;;;;5074888;28;19908;-65
2021/05/03 05:53:51;;;;;;;;;;;486.40;1228.80;;;;;;5074299;28;20286;-67
2021/05/03 05:56:17;;;;;;;;;;;486.40;1254.40;;;;;;5074198;28;19908;-67
2021/05/03 05:58:43;;;;;;;;;;;;;;;;;;5074389;28;20366;-68
2021/05/03 06:01:08;;;;;;;;;;;;;;;;;;5074228;28;19911;-69
2021/05/03 06:03:34;;;;;;;;;;;;;;;;;;5074311;28;19905;-68
2021/05/03 06:06:00;;;;;;;;;;;;;;;;;;5073723;28;19904;-69
2021/05/03 06:08:26;;;;;;;;;;;;;;;;;;5074213;28;19962;-69
2021/05/03 06:10:52;;;;;;;;;;;;;;;;;;5074008;28;19924;-68
2021/05/03 06:13:18;;;;;;;;;;;;;;;;;;5073952;28;19904;-70
2021/05/03 06:15:44;;;;;;;;;;;;;;;;;;5069148;28;19908;-68
2021/05/03 06:18:10;;;;;;;;;;;;;;;;;;5070207;28;19958;-67
2021/05/03 06:20:36;;;;;;;;;;;;;;;;;;5073526;28;20404;-67
2021/05/03 06:23:02;;;;;;;;;;;;;;;;;;5064889;28;19917;-66
2021/05/03 06:25:28;;;;;;;;;;;;;;;;;;5053984;28;20347;-68
2021/05/03 06:27:54;;;;;;;;;;;;;;;;;;5053573;28;20011;-69
2021/05/03 06:30:21;;;;;;;;;;;486.90;1177.60;;;;;;5073635;28;19927;-68
2021/05/03 06:32:47;;;;;;;;;;;;;;;;;;5065660;28;19908;-69
2021/05/03 06:35:12;;;;;;;;;;;;;;;;;;5073339;28;20330;-69
2021/05/03 06:37:38;;;;;;;;;;;;;;;;;;5045352;28;19927;-69
2021/05/03 06:40:04;;;;;;;;;;;;;;;;;;5056039;28;20367;-68
2021/05/03 06:42:30;;;;;;;;;;;;;;;;;;5053310;28;19912;-69
2021/05/03 06:44:56;;;;;;;;;;;;;;;;;;5053095;28;19909;-68
2021/05/03 06:47:23;;;;;;;;;;;;;;;;;;5052623;28;19913;-67
2021/05/03 06:49:49;;;;;;;;;;;;;;;;;;5052720;28;20354;-66
2021/05/03 06:52:15;;;;;;;;;;;;;;;;;;5052865;28;19905;-68
2021/05/03 06:54:41;;;;;;;;;;;;;;;;;;5053065;28;20382;-66
2021/05/03 06:57:06;;;;;;;;;;;;;;;;;;5052886;28;19944;-67
2021/05/03 06:59:32;;;;;;;;;;;;;;;;;;5052688;28;19959;-63
2021/05/03 07:01:58;;;;;;;;;;;;;;;;;;5052718;28;19909;-66
2021/05/03 07:04:24;;;;;;;;;;;;;;;;;;5052613;28;19951;-67
2021/05/03 07:06:50;;;;;;;;;;;;;;;;;;5052523;28;19919;-68
2021/05/03 07:09:16;;;;;;;;;;;;;;;;;;5052641;28;19999;-65
2021/05/03 07:11:44;;;;;;;;;;;;;;;;;;5052332;28;19951;-66
2021/05/03 07:14:10;;;;;;;;;;;;;;;;;;5046544;28;19952;-66
2021/05/03 07:16:36;;;;;;;;;;;;;;;;;;5051070;28;19940;-67
2021/05/03 07:19:02;;;;;;;;;;;;;;;;;;5052402;28;20433;-64
2021/05/03 07:21:28;;;;;;;;;;;;;;;;;;5052196;28;20309;-66
2021/05/03 07:23:54;;;;;;;;;;;;;;;;;;5052342;28;19912;-64
2021/05/03 07:26:20;;;;;;;;;;;;;;;;;;5052510;28;19908;-65
2021/05/03 07:28:46;;;;;;;;;;;;;;;;;;5052808;28;20035;-64
2021/05/03 07:31:12;;;;;;;;;;;;;;;;;;5040857;28;19947;-66
2021/05/03 07:33:38;;;;;;;;;;;;;;;;;;5051369;28;19909;-67
2021/05/03 07:36:04;;;;;;;;;;;;;;;;;;5052424;28;19904;-67
2021/05/03 07:38:30;;;;;;;;;;;;;;;;;;5064375;28;19904;-67
2021/05/03 07:40:56;;;;;;;;;;;;;;;;;;5072515;28;19962;-66
2021/05/03 07:43:22;;;;;;;;;;;;;;;;;;5070581;28;19905;-67
2021/05/03 07:45:48;;;;;;;;;;;;;;;;;;5070923;28;19904;-66
2021/05/03 07:48:14;;;;;;;;;;;;;;;;;;5072402;28;19916;-66
2021/05/03 07:50:41;;;;;;;;;;;;;;;;;;5072109;28;19912;-65
2021/05/03 07:53:07;;;;;;;;;;;;;;;;;;5072363;28;19940;-67
2021/05/03 07:55:33;;;;;;;;;;;;;;;;;;5072496;28;19916;-67
2021/05/03 07:58:00;;;;;;;;;;;;;;;;;;5072087;28;19910;-66
2021/05/03 08:00:26;;;;;;;;;;;;;;;;;;5072601;28;19927;-66
2021/05/03 08:02:52;;;;;;;;;;;;;;;;;;5072420;28;20351;-65
2021/05/03 08:05:18;;;;;;;;;;;;;;;;;;5072426;28;19911;-67
2021/05/03 08:07:44;;;;;;;;;;;;;;;;;;5072271;28;20278;-67
2021/05/03 08:10:10;;;;;;;;;;;;;;;;;;5072338;28;19974;-67
2021/05/03 08:12:36;;;;;;;;;;;;;;;;;;5067260;28;19971;-65
2021/05/03 08:15:10;;;;;;;;;;;;;;;;;;5052073;28;19904;-68
2021/05/03 08:17:37;;;;;;;;;;;;;;;;;;5051776;28;19905;-67
2021/05/03 08:20:03;;;;;;;;;;;;;;;;;;5051669;28;20261;-69
2021/05/03 08:22:29;;;;;;;;;;;;;;;;;;5052174;28;20016;-68
2021/05/03 08:24:55;;;;;;;;;;;;;;;;;;5052201;28;19995;-69
2021/05/03 08:27:21;;;;;;;;;;;;;;;;;;5051978;28;19971;-69
2021/05/03 08:29:47;;;;;;;;;;;;;;;;;;5047170;28;19905;-67
2021/05/03 08:32:13;;;;;;;;;;;;;;;;;;5052091;28;20379;-66
2021/05/03 08:34:38;;;;;;;;;;;;;;;;;;5052046;28;19909;-66
2021/05/03 08:37:04;;;;;;;;;;;;;;;;;;5053524;28;19905;-64
2021/05/03 08:39:30;;;;;;;;;;;;;;;;;;5072104;28;19904;-64
2021/05/03 08:41:58;;;;;;;;;;;;;;;;;;5071856;28;20407;-67
2021/05/03 08:44:26;;;;;;;;;;;;;;;;;;5072091;28;19908;-66
2021/05/03 08:46:52;;;;;;;;;;;;;;;;;;5070587;28;19916;-64
2021/05/03 08:49:22;;;;;;;;;;;;;;;;;;5071474;28;19958;-68
2021/05/03 08:57:12;;;;;;;;;;;;;;;;;;5032822;28;19916;-67
2021/05/03 08:59:38;;;;;;;;;;;;;;;;;;5032966;28;20004;-68
2021/05/03 09:02:04;;;;;;;;;;;;;;;;;;5032897;28;19953;-67
2021/05/03 09:04:30;;;;;;;;;;;;;;;;;;5032940;28;19916;-68
2021/05/03 09:06:56;;;;;;;;;;;;;;;;;;5032770;28;20164;-64
2021/05/03 09:09:21;;;;;;;;;;;;;;;;;;5031545;28;19905;-67
2021/05/03 09:11:47;;;;;;;;;;;;;;;;;;5019947;28;19905;-66
2021/05/03 09:14:13;;;;;;;;;;;;;;;;;;5032596;28;19929;-66
2021/05/03 09:16:39;;;;;;;;;;;;;;;;;;5025703;28;19928;-67
2021/05/03 09:19:05;;;;;;;;;;;;;;;;;;5021452;28;20366;-64
2021/05/03 09:21:33;;;;;;;;;;;;;;;;;;5012495;28;19917;-69
2021/05/03 09:23:59;;;;;;;;;;;;;;;;;;5012910;28;19913;-71
2021/05/03 09:26:26;;;;;;;;;;;;;;;;;;5013185;28;19916;-69
2021/05/03 09:28:52;;;;;;;;;;;;;;;;;;5013062;28;19916;-69
2021/05/03 09:31:18;;;;;;;;;;;;;;;;;;5013181;28;20371;-68
2021/05/03 09:33:44;;;;;;;;;;;;;;;;;;5036960;28;20003;-69
2021/05/03 09:36:10;;;;;;;;;;;;;;;;;;5054892;28;19983;-70
2021/05/03 09:38:39;;;;;;;;;;;;;;;;;;5068932;28;19995;-68
2021/05/03 09:41:05;;;;;;;;;;;;;;;;;;5047675;28;19908;-69
2021/05/03 09:43:32;;;;;;;;;;;;;;;;;;5075017;28;19904;-69
2021/05/03 09:45:58;;;;;;;;;;;;;;;;;;5060704;28;19990;-70
2021/05/03 09:48:24;;;;;;;;;;;;;;;;;;5064331;28;20003;-69
2021/05/03 09:50:49;;;;;;;;;;;;;;;;;;5071191;28;19951;-70
2021/05/03 09:53:15;;;;;;;;;;;;;;;;;;5074745;28;20362;-69
2021/05/03 09:55:41;;;;;;;;;;;;;;;;;;5074652;28;19936;-69
2021/05/03 09:58:07;;;;;;;;;;;;;;;;;;5074766;28;19904;-67
2021/05/03 10:00:33;;;;;;;;;;;;;;;;;;5070435;28;19913;-69
2021/05/03 10:02:59;;;;;;;;;;;;;;;;;;5053940;28;19952;-67
2021/05/03 10:05:25;;;;;;;;;;;;;;;;;;5054196;28;19943;-70
2021/05/03 10:07:53;;;;;;;;;;;;;;;;;;5066711;28;20351;-68
2021/05/03 10:10:35;;;;;;;;;;;;;;;;;;5054319;28;20423;-69
2021/05/03 10:13:01;;;;;;;;;;;;;;;;;;5054103;28;19905;-68
2021/05/03 10:15:27;;;;;;;;;;;;;;;;;;5054161;28;19904;-69
2021/05/03 10:17:53;;;;;;;;;;;;;;;;;;5054021;28;19915;-68
2021/05/03 10:20:21;;;;;;;;;;;;;;;;;;5053955;28;19908;-66
2021/05/03 10:22:49;;;;;;;;;;;;;;;;;;5054261;28;19919;-69
2021/05/03 10:25:15;;;;;;;;;;;;;;;;;;5053868;28;20368;-69
2021/05/03 10:27:41;;;;;;;;;;;;;;;;;;5053952;28;19913;-69
2021/05/03 10:30:07;;;;;;;;;;;;;;;;;;5053637;28;19991;-68
2021/05/03 10:32:34;;;;;;;;;;;;;;;;;;5054040;28;19955;-68
2021/05/03 10:35:02;;;;;;;;;;;;;;;;;;5053729;28;19919;-68
2021/05/03 10:37:28;;;;;;;;;;;;;;;;;;5058341;28;19915;-66
2021/05/03 10:39:54;;;;;;;;;;;;;;;;;;5074120;28;20242;-67
2021/05/03 10:42:19;;;;;;;;;;;;;;;;;;5073640;28;19911;-67
2021/05/03 10:44:45;;;;;;;;;;;;;;;;;;5073491;28;19904;-67
2021/05/03 10:47:11;;;;;;;;;;;;;;;;;;5055943;28;19924;-68
2021/05/03 10:49:40;;;;;;;;;;;;;;;;;;5053554;28;20483;-68
2021/05/03 10:52:08;;;;;;;;;;;;;;;;;;5053444;28;20042;-67
2021/05/03 10:54:51;;;;;;;;;;;;;;;;;;5053277;28;19905;-68
2021/05/03 10:57:17;;;;;;;;;;;;;;;;;;5053235;28;19908;-67
2021/05/03 10:59:43;;;;;;;;;;;;;;;;;;5053463;28;19913;-68
2021/05/03 11:02:09;;;;;;;;;;;;;;;;;;5052531;28;20027;-68
2021/05/03 11:04:38;;;;;;;;;;;;;;;;;;5053340;28;19904;-68
2021/05/03 11:07:04;;;;;;;;;;;;;;;;;;5053342;28;19933;-66
2021/05/03 11:09:40;;;;;;;;;;;;;;;;;;5053049;28;19905;-69
2021/05/03 11:12:06;;;;;;;;;;;;;;;;;;5053165;28;20362;-68
2021/05/03 11:14:32;;;;;;;;;;;;;;;;;;5052854;28;19988;-68
2021/05/03 11:16:58;;;;;;;;;;;;;;;;;;5051764;28;19956;-68
2021/05/03 11:19:24;;;;;;;;;;;;;;;;;;5052676;28;20362;-68
2021/05/03 11:21:50;;;;;;;;;;;;;;;;;;5052214;28;19928;-68
2021/05/03 11:24:17;;;;;;;;;;;;;;;;;;5052702;28;20033;-67
2021/05/03 11:26:45;;;;;;;;;;;;;;;;;;5052215;28;19913;-68
2021/05/03 11:29:16;;;;;;;;;;;;;;;;;;5052203;28;19954;-68
2021/05/03 11:31:42;;;;;;;;;;;;;;;;;;5050551;28;20113;-68
2021/05/03 11:34:16;;;;;;;;;;;;;;;;;;5052260;28;20009;-70
2021/05/03 11:36:48;;;;;;;;;;;;;;;;;;5050965;28;20266;-70
2021/05/03 11:39:19;;;;;;;;;;;;;;;;;;5071499;28;20559;-68
2021/05/03 11:41:59;;;;;;;;;;;;;;;;;;5072409;28;19911;-71
2021/05/03 11:44:40;;;;;;;;;;;;;;;;;;5071247;28;19904;-67
2021/05/03 11:47:06;;;;;;;;;;;;;;;;;;5071719;28;19913;-66
2021/05/03 11:49:32;;;;;;;;;;;;;;;;;;5052247;28;19908;-69
2021/05/03 11:51:58;;;;;;;;;;;;;;;;;;5052939;28;19928;-70
2021/05/03 11:54:24;;;;;;;;;;;;;;;;;;5051866;28;19917;-69
2021/05/03 11:56:50;;;;;;;;;;;;;;;;;;5051820;28;19905;-72
2021/05/03 11:59:16;;;;;;;;;;;;;;;;;;5052375;28;19991;-69
2021/05/03 12:01:42;;;;;;;;;;;;;;;;;;5052588;28;20004;-69
2021/05/03 12:04:07;;;;;;;;;;;;;;;;;;5051635;28;19999;-71
2021/05/03 12:06:33;;;;;;;;;;;;;;;;;;5051867;28;19999;-71
2021/05/03 12:08:59;;;;;;;;;;;;;;;;;;5051979;28;20389;-69
2021/05/03 12:11:25;;;;;;;;;;;;;;;;;;5051669;28;19905;-68
2021/05/03 12:13:52;;;;;;;;;;;;;;;;;;5051829;28;19912;-72
2021/05/03 12:16:18;;;;;;;;;;;;;;;;;;5052003;28;19905;-72
2021/05/03 12:18:43;;;;;;;;;;;;;;;;;;5052308;28;19962;-72
2021/05/03 12:21:09;;;;;;;;;;;;;;;;;;5051947;28;19916;-68
2021/05/03 12:23:35;;;;;;;;;;;;;;;;;;5052233;28;19909;-68
2021/05/03 12:26:03;;;;;;;;;;;;;;;;;;5052264;28;19973;-68
2021/05/03 12:28:29;;;;;;;;;;;;;;;;;;5052222;28;20017;-67
2021/05/03 12:30:59;;;;;;;;;;;538.50;1049.60;;;;;;5055412;28;19909;-66
2021/05/03 12:33:25;;;;;;;;;;;538.50;1049.60;;;;;;5055539;28;19974;-67
2021/05/03 12:35:52;;;;;;;;;;;563.30;1075.20;;;;;;5056118;28;19905;-67
2021/05/03 12:38:19;;;;;;;;;;;563.40;1049.60;;;;;;5067430;28;19993;-66
2021/05/03 12:40:45;;;;;;;;;;;563.40;1049.60;;;;;;5075994;28;20358;-66
2021/05/03 12:43:12;;;;;;;;;;;563.30;1049.60;;;;;;5076293;28;19955;-65
2021/05/03 12:50:47;;;;;;;;;;;538.50;1075.20;;;;;;5055548;28;20278;-73
2021/05/03 12:56:12;;;;;;;;;;;538.50;1075.20;;;;;;5043651;28;19967;-74
2021/05/03 12:58:54;;;;;;;;;;;563.40;1075.20;;;;;;5046882;28;20317;-74
2021/05/03 13:29:08;;;;;;;;;;;563.20;1075.20;;;;;;4992659;28;19920;-75
2021/05/03 13:31:35;;;;;;;;;;;538.50;1049.60;;;;;;4989091;28;19905;-75
2021/05/03 13:34:01;;;;;;;;;;;538.50;1049.60;;;;;;4992866;28;19997;-73
2021/05/03 13:36:27;;;;;;;;;;;538.50;1049.60;;;;;;4992609;28;19906;-74
2021/05/03 13:38:53;;;;;;;;;;;563.30;1075.20;;;;;;4992801;28;19920;-73
2021/05/03 13:41:25;;;;;;;;;;;563.40;1049.60;;;;;;4993154;28;19966;-72
2021/05/03 13:43:50;;;;;;;;;;;563.60;1049.60;;;;;;5069593;28;19951;-72
2021/05/03 13:46:17;;;;;;;;;;;563.60;1049.60;;;;;;5074216;28;19974;-73
2021/05/03 13:48:43;;;;;;;;;;;563.60;1049.60;;;;;;5074437;28;19912;-74
2021/05/03 13:51:08;;;;;;;;;;;563.70;1049.60;;;;;;5074756;28;19915;-75
2021/05/03 13:53:34;;;;;;;;;;;;;;;;;;5062321;28;19913;-75
2021/05/03 13:56:00;;;;;;;;;;;;;;;;;;5054895;28;20366;-74
2021/05/03 13:58:26;;;;;;;;;;;;;;;;;;5063178;28;19909;-73
2021/05/03 14:00:52;;;;;;;;;;;;;;;;;;5058928;28;19916;-72
2021/05/03 14:03:18;;;;;;;;;;;;;;;;;;5050187;28;19909;-73
2021/05/03 14:05:44;;;;;;;;;;;;;;;;;;5049581;28;19948;-74
2021/05/03 14:08:10;;;;;;;;;;;;;;;;;;5053939;28;19940;-72
2021/05/03 14:10:36;;;;;;;;;;;;;;;;;;5053667;28;19908;-74
2021/05/03 14:13:03;;;;;;;;;;;;;;;;;;5043187;28;19958;-73
2021/05/03 14:15:30;;;;;;;;;;;;;;;;;;5053802;28;19905;-75
2021/05/03 14:17:56;;;;;;;;;;;;;;;;;;5053542;28;19905;-74
2021/05/03 14:20:22;;;;;;;;;;;;;;;;;;5053641;28;20330;-74
2021/05/03 14:22:48;;;;;;;;;;;563.80;1049.60;;;;;;5053585;28;19920;-74
2021/05/03 14:25:15;;;;;;;;;;;563.70;1049.60;;;;;;5063211;28;19908;-73
2021/05/03 14:27:42;;;;;;;;;;;563.50;1049.60;;;;;;5061245;28;20275;-70
2021/05/03 14:30:12;;;;;;;;;;;563.40;1049.60;;;;;;5053197;28;20372;-71
2021/05/03 14:35:09;;;;;;;;;;;563.70;1024.00;;;;;;5053273;28;20323;-69
2021/05/03 14:37:35;;;;;;;;;;;563.70;1024.00;;;;;;5058849;28;20629;-69
2021/05/03 14:40:01;;;;;;;;;;;563.70;1024.00;;;;;;5073285;28;19912;-71
2021/05/03 14:42:26;;;;;;;;;;;563.70;998.40;;;;;;5072089;28;19927;-70
2021/05/03 14:44:52;;;;;;;;;;;563.70;998.40;;;;;;5073002;28;20007;-71
2021/05/03 14:47:22;;;;;;;;;;;563.80;998.40;;;;;;5057052;28;19919;-69
2021/05/03 14:52:31;;;;;;;;;;;563.80;1024.00;;;;;;5051852;28;19962;-71
2021/05/03 14:54:56;;;;;;;;;;;563.80;998.40;;;;;;5051898;28;19916;-71
2021/05/03 14:57:22;;;;;;;;;;;563.80;998.40;;;;;;5052767;28;20035;-69
2021/05/03 14:59:48;;;;;;;;;;;563.80;998.40;;;;;;5046708;28;19912;-71
2021/05/03 15:02:16;;;;;;;;;;;563.80;1024.00;;;;;;5045321;28;19905;-70
2021/05/03 15:04:41;;;;;;;;;;;563.90;998.40;;;;;;5051720;28;19927;-71
2021/05/03 15:07:10;;;;;;;;;;;563.80;998.40;;;;;;5053041;28;20371;-70
2021/05/03 15:09:40;;;;;;;;;;;563.90;998.40;;;;;;5052902;28;19911;-70
2021/05/03 15:12:09;;;;;;;;;;;563.90;998.40;;;;;;5052918;28;19927;-73
2021/05/03 15:19:49;;;;;;;;;;;563.50;998.40;;;;;;5039950;28;19912;-73
2021/05/03 15:22:14;;;;;;;;;;;563.30;1024.00;;;;;;5052627;28;20708;-73
2021/05/03 15:24:40;;;;;;;;;;;563.20;1024.00;;;;;;5052772;28;19905;-74
2021/05/03 15:27:22;;;;;;;;;;;563.30;1024.00;;;;;;5052568;28;19959;-74
2021/05/03 15:32:39;;;;;;;;;;;563.40;998.40;;;;;;5052646;28;19998;-73
2021/05/03 15:35:05;;;;;;;;;;;563.30;998.40;;;;;;5038404;28;19911;-73
2021/05/03 15:37:31;;;;;;;;;;;563.20;972.80;;;;;;5057638;28;19915;-73
2021/05/03 15:39:56;;;;;;;;;;;538.30;998.40;;;;;;5072945;28;19998;-73
2021/05/03 15:42:22;;;;;;;;;;;;;;;;;;5071725;28;19916;-74
2021/05/03 15:44:51;;;;;;;;;;;;;;;;;;5072634;28;20369;-74
2021/05/03 15:47:17;;;;;;;;;;;;;;;;;;5070585;28;19912;-75
2021/05/03 15:49:43;;;;;;;;;;;;;;;;;;5052182;28;19931;-76
2021/05/03 15:52:09;;;;;;;;;;;;;;;;;;5052166;28;19909;-75
2021/05/03 15:54:35;;;;;;;;;;;;;;;;;;5041299;28;19905;-75
2021/05/03 15:57:01;;;;;;;;;;;538.50;972.80;;;;;;5052436;28;20223;-75
2021/05/03 15:59:27;;;;;;;;;;;;;;;;;;5052607;28;19909;-76
2021/05/03 16:01:53;;;;;;;;;;;;;;;;;;5047299;28;20462;-72
2021/05/03 16:04:19;;;;;;;;;;;;;;;;;;5054872;28;19995;-71
2021/05/03 16:06:45;;;;;;;;;;;;;;;;;;5056076;28;20066;-72
2021/05/03 16:09:11;;;;;;;;;;;;;;;;;;5055836;28;19950;-71
2021/05/03 16:11:41;;;;;;;;;;;;;;;;;;5044940;28;20343;-73
2021/05/03 16:14:07;;;;;;;;;;;;;;;;;;5055151;28;19905;-71
2021/05/03 16:16:32;;;;;;;;;;;;;;;;;;5055641;28;19912;-71
2021/05/03 16:18:58;;;;;;;;;;;;;;;;;;5052746;28;19916;-71
2021/05/03 16:21:24;;;;;;;;;;;;;;;;;;5060158;28;19927;-75
2021/05/03 16:23:51;;;;;;;;;;;;;;;;;;5055845;28;19908;-78
2021/05/03 16:26:17;;;;;;;;;;;;;;;;;;5055420;28;20388;-76
2021/05/03 16:28:43;;;;;;;;;;;;;;;;;;5054340;28;20038;-76
2021/05/03 16:31:09;;;;;;;;;;;;;;;;;;5041688;28;19905;-77
2021/05/03 16:33:35;;;;;;;;;;;;;;;;;;5054027;28;19904;-77
2021/05/03 16:36:01;;;;;;;;;;;;;;;;;;5055561;28;19992;-76
2021/05/03 16:38:27;;;;;;;;;;;;;;;;;;5054449;28;19908;-76
2021/05/03 16:40:53;;;;;;;;;;;;;;;;;;5073810;28;20288;-76
2021/05/03 16:43:19;;;;;;;;;;;;;;;;;;5075487;28;19927;-76
2021/05/03 16:45:45;;;;;;;;;;;;;;;;;;5072051;28;19912;-75
2021/05/03 16:48:11;;;;;;;;;;;;;;;;;;5055040;28;19912;-78
2021/05/03 16:50:37;;;;;;;;;;;;;;;;;;5062178;28;20282;-84
2021/05/03 16:53:03;;;;;;;;;;;;;;;;;;5049107;28;19967;-76
2021/05/03 16:55:29;;;;;;;;;;;;;;;;;;5053632;28;19909;-75
2021/05/03 16:57:55;;;;;;;;;;;;;;;;;;5050809;28;19911;-73
2021/05/03 17:00:21;;;;;;;;;;;;;;;;;;5061296;28;20000;-75
2021/05/03 17:02:47;;;;;;;;;;;;;;;;;;5063343;28;19909;-76
2021/05/03 17:05:13;;;;;;;;;;;;;;;;;;5054816;28;19908;-75
2021/05/03 17:07:39;;;;;;;;;;;;;;;;;;5053518;28;19959;-75